Time;durP1;ratioP1;P1;durP2;ratioP2;P2;SDS_P1;SDS_P2;PMS_P1;PMS_P2;Temp;Humidity;BMP_temperature;BMP_pressure;BME280_temperature;BME280_humidity;BME280_pressure;Samples;Min_cycle;Max_cycle;Signal;HPM_P1;HPM_P2
2022/09/08 00:09:04;;;;;;;9.50;5.00;;;;;;;12.03;48.53;99492.02;430486;1273;148377;-63
2022/09/08 00:19:10;;;;;;;6.00;4.30;;;;;;;11.90;48.82;99484.66;431435;1270;141039;-62
2022/09/08 00:29:16;;;;;;;5.10;4.00;;;;;;;11.77;49.29;99480.13;431119;1270;141493;-62
2022/09/08 00:39:22;;;;;;;6.90;5.20;;;;;;;11.74;49.38;99465.27;432051;1270;140952;-61
2022/09/08 00:49:30;;;;;;;7.40;4.50;;;;;;;11.72;49.49;99457.36;432922;1271;142356;-61
2022/09/08 00:59:37;;;;;;;8.50;5.10;;;;;;;11.68;49.66;99452.02;431762;1270;141152;-62
2022/09/08 01:20:17;;;;;;;7.40;4.10;;;;;;;11.59;49.86;99449.27;432753;1270;142496;-62
2022/09/08 01:30:23;;;;;;;6.80;5.30;;;;;;;11.59;49.89;99448.41;433309;1270;141864;-61
2022/09/08 01:40:29;;;;;;;6.40;4.40;;;;;;;11.55;49.97;99453.98;431653;1270;142921;-62
2022/09/08 01:50:36;;;;;;;7.10;3.70;;;;;;;11.53;50.01;99458.29;432390;1270;146065;-61
2022/09/08 02:00:43;;;;;;;7.70;4.40;;;;;;;11.57;50.02;99456.83;430929;1270;146110;-61
2022/09/08 02:10:55;;;;;;;8.70;4.80;;;;;;;11.60;49.81;99436.20;430881;1273;142658;-61
2022/09/08 02:21:10;;;;;;;7.60;5.30;;;;;;;11.54;49.98;99424.40;434008;1270;142730;-61
2022/09/08 02:31:16;;;;;;;8.70;4.70;;;;;;;11.50;50.01;99425.38;432874;1270;142662;-62
2022/09/08 02:41:22;;;;;;;6.40;4.80;;;;;;;11.44;49.79;99421.06;430407;1271;142700;-61
2022/09/08 02:51:28;;;;;;;6.40;4.60;;;;;;;11.35;49.93;99411.00;431092;1273;142564;-63
2022/09/08 03:01:33;;;;;;;6.90;4.90;;;;;;;11.27;49.91;99414.88;432033;1270;142385;-61
2022/09/08 03:11:39;;;;;;;8.00;3.90;;;;;;;11.23;49.94;99392.23;429882;1273;145990;-61
2022/09/08 03:21:45;;;;;;;6.70;4.70;;;;;;;11.20;49.78;99391.54;431713;1271;141615;-62
2022/09/08 03:31:51;;;;;;;6.40;3.70;;;;;;;11.15;49.58;99387.52;431303;1271;147946;-59
2022/09/08 03:41:57;;;;;;;5.30;3.60;;;;;;;11.14;49.52;99383.05;432643;1271;211847;-62
2022/09/08 03:52:04;;;;;;;7.80;3.60;;;;;;;11.07;49.60;99383.64;429657;1271;1449584;-61
2022/09/08 04:02:10;;;;;;;9.80;5.70;;;;;;;10.97;49.73;99384.22;430429;1271;142302;-59
2022/09/08 04:12:17;;;;;;;8.00;3.90;;;;;;;10.89;49.94;99391.16;432231;1271;142307;-62
2022/09/08 04:22:23;;;;;;;8.10;4.10;;;;;;;10.91;50.18;99388.96;431380;1271;145185;-62
2022/09/08 04:32:29;;;;;;;9.40;4.50;;;;;;;11.02;50.21;99383.86;430382;1271;141756;-61
2022/09/08 04:42:35;;;;;;;9.10;4.00;;;;;;;11.16;50.33;99394.30;431671;1270;141437;-62
2022/09/08 04:52:41;;;;;;;8.50;4.10;;;;;;;11.35;50.28;99398.42;431386;1271;142730;-62
2022/09/08 05:02:48;;;;;;;9.00;5.20;;;;;;;11.65;49.91;99396.81;431879;1271;142477;-59
2022/09/08 05:12:54;;;;;;;7.10;4.10;;;;;;;12.24;49.11;99386.80;431726;1271;140459;-62
2022/09/08 05:23:00;;;;;;;7.50;4.60;;;;;;;14.18;47.13;99387.36;430848;1270;141108;-62
2022/09/08 05:33:06;;;;;;;7.90;4.40;;;;;;;15.72;45.20;99376.55;431188;1270;140988;-62
2022/09/08 05:43:12;;;;;;;6.70;3.60;;;;;;;19.41;40.64;99365.33;444783;1270;142377;-62
2022/09/08 05:53:17;;;;;;;6.00;4.40;;;;;;;22.81;36.20;99365.27;446753;1270;143457;-63
2022/09/08 06:03:26;;;;;;;7.70;4.40;;;;;;;25.79;33.03;99362.37;447564;1268;141853;-63
2022/09/08 06:13:34;;;;;;;7.50;5.10;;;;;;;27.00;29.44;99363.64;447419;1271;141799;-63
2022/09/08 06:23:40;;;;;;;7.60;3.70;;;;;;;27.64;28.18;99372.95;445756;1270;141850;-62
2022/09/08 06:33:44;;;;;;;;;;;;;;;28.95;27.07;99363.63;447609;1270;142029;-63
2022/09/08 06:43:55;;;;;;;4.70;3.40;;;;;;;30.94;25.23;99375.55;437024;1270;129692;-62
2022/09/08 06:54:12;;;;;;;7.90;4.80;;;;;;;32.40;23.84;99384.49;429937;1270;141625;-61
2022/09/08 07:04:30;;;;;;;7.70;4.60;;;;;;;35.54;21.77;99383.73;447000;1271;140805;-63
2022/09/08 07:15:02;;;;;;;7.80;4.50;;;;;;;36.75;20.14;99386.36;440631;1270;142865;-60
2022/09/08 07:25:18;;;;;;;7.10;4.00;;;;;;;37.16;19.34;99374.27;444315;1270;194301;-63
2022/09/08 07:35:29;;;;;;;8.30;4.80;;;;;;;37.71;18.61;99357.14;446574;1270;141192;-63
2022/09/08 07:45:40;;;;;;;11.10;4.20;;;;;;;37.82;17.72;99350.87;444650;1270;143262;-62
2022/09/08 07:55:45;;;;;;;;;;;;;;;37.39;17.91;99346.95;432451;1270;146255;-62
2022/09/08 08:05:58;;;;;;;4.50;4.00;;;;;;;37.44;18.23;99339.38;435903;1270;127902;-63
2022/09/08 08:16:10;;;;;;;6.00;4.50;;;;;;;37.04;18.08;99342.54;446054;1270;141502;-63
2022/09/08 08:26:27;;;;;;;7.30;4.20;;;;;;;35.34;19.27;99326.61;446876;1270;142491;-62
2022/09/08 08:36:39;;;;;;;7.00;4.50;;;;;;;36.29;18.77;99346.98;447583;1269;140946;-62
2022/09/08 08:47:24;;;;;;;8.00;5.40;;;;;;;32.19;20.84;99349.28;447726;1270;141658;-62
2022/09/08 08:57:46;;;;;;;8.20;4.30;;;;;;;27.06;25.19;99345.68;447429;1269;142089;-62
2022/09/08 09:08:32;;;;;;;9.60;5.30;;;;;;;25.09;27.33;99338.33;447063;1269;142299;-61
2022/09/08 09:19:05;;;;;;;7.10;4.30;;;;;;;23.93;29.30;99340.20;447622;1269;141891;-61
2022/09/08 09:29:20;;;;;;;6.40;3.70;;;;;;;23.58;30.51;99328.09;447000;1268;142287;-61
2022/09/08 09:39:39;;;;;;;7.60;3.70;;;;;;;22.90;31.44;99326.09;447735;1270;141876;-61
2022/09/08 09:50:28;;;;;;;7.90;4.00;;;;;;;22.92;31.99;99321.02;447746;1270;142419;-62
2022/09/08 10:00:49;;;;;;;5.90;4.30;;;;;;;22.26;33.01;99316.63;447472;1270;140423;-62
2022/09/08 10:11:11;;;;;;;5.60;3.50;;;;;;;22.44;33.01;99292.27;440085;1271;143053;-61
2022/09/08 10:21:49;;;;;;;8.10;4.00;;;;;;;22.33;33.61;99287.48;447716;1270;141899;-62
2022/09/08 10:32:31;;;;;;;5.50;3.80;;;;;;;22.52;33.56;99300.81;447008;1270;141903;-62
2022/09/08 10:42:51;;;;;;;6.90;3.70;;;;;;;22.29;33.85;99282.62;447777;1270;141411;-62
2022/09/08 10:53:41;;;;;;;7.50;3.50;;;;;;;22.22;34.26;99264.13;446981;1270;141195;-61
2022/09/08 11:04:10;;;;;;;9.70;3.00;;;;;;;21.84;34.52;99267.31;445146;1269;143994;-61
2022/09/08 11:14:39;;;;;;;11.00;3.10;;;;;;;21.63;34.98;99262.96;446736;1271;141113;-62
2022/09/08 11:24:58;;;;;;;3.30;2.70;;;;;;;22.02;35.15;99255.45;447765;1268;141041;-61
2022/09/08 11:35:29;;;;;;;10.50;3.80;;;;;;;22.24;34.80;99247.95;446956;1270;142194;-61
2022/09/08 11:45:50;;;;;;;8.60;3.40;;;;;;;22.10;34.62;99260.44;447742;1269;142608;-62
2022/09/08 11:56:31;;;;;;;4.80;3.20;;;;;;;21.68;35.26;99238.34;446826;1269;142082;-62
2022/09/08 12:07:01;;;;;;;6.20;3.80;;;;;;;21.90;35.61;99235.47;447567;1269;141359;-62
2022/09/08 12:17:16;;;;;;;9.90;4.70;;;;;;;22.10;35.76;99219.65;446318;1272;142324;-62
2022/09/08 12:27:38;;;;;;;5.30;3.40;;;;;;;22.04;35.44;99211.84;447075;1272;141870;-62
2022/09/08 12:37:52;;;;;;;7.90;3.50;;;;;;;21.96;35.99;99197.87;447259;1273;142061;-63
2022/09/08 12:48:10;;;;;;;5.30;2.80;;;;;;;22.00;36.18;99186.89;447514;1271;141315;-63
2022/09/08 12:58:23;;;;;;;4.40;3.10;;;;;;;21.95;36.54;99159.64;447732;1270;141401;-63
2022/09/08 13:08:45;;;;;;;6.20;3.90;;;;;;;22.07;36.54;99137.04;442337;1270;141524;-62
2022/09/08 13:19:01;;;;;;;4.20;3.60;;;;;;;22.09;36.65;99127.92;447670;1268;141640;-61
2022/09/08 13:29:24;;;;;;;5.80;3.10;;;;;;;22.08;36.70;99119.80;446889;1270;142277;-62
2022/09/08 13:40:17;;;;;;;4.90;3.20;;;;;;;22.12;36.66;99122.02;447683;1268;141972;-62
2022/09/08 13:50:41;;;;;;;5.80;3.20;;;;;;;22.05;36.81;99105.09;446969;1270;141985;-62
2022/09/08 14:01:31;;;;;;;4.90;2.70;;;;;;;22.10;36.90;99095.66;447485;1271;142179;-62
2022/09/08 14:11:46;;;;;;;7.60;3.60;;;;;;;22.15;36.94;99070.11;442115;1273;144231;-64
2022/09/08 14:21:58;;;;;;;5.40;3.40;;;;;;;22.25;37.09;99066.27;445481;1271;141322;-61
2022/09/08 14:32:18;;;;;;;8.30;3.50;;;;;;;22.28;37.19;99053.50;429981;1270;141704;-61
2022/09/08 14:42:43;;;;;;;8.70;3.80;;;;;;;22.32;36.93;99041.91;430655;1270;140756;-61
2022/09/08 14:53:09;;;;;;;6.40;3.50;;;;;;;22.15;36.98;99030.73;430787;1270;142280;-60
2022/09/08 15:03:20;;;;;;;5.20;3.70;;;;;;;21.90;37.17;99015.22;431128;1270;142967;-63
2022/09/08 15:13:30;;;;;;;5.40;3.70;;;;;;;21.69;37.57;99014.48;431966;1270;141949;-60
2022/09/08 15:23:40;;;;;;;5.80;3.80;;;;;;;21.53;37.90;99021.23;431870;1270;146972;-61
2022/09/08 15:33:57;;;;;;;4.00;3.30;;;;;;;21.41;38.00;99013.08;430579;1270;140485;-60
2022/09/08 15:44:24;;;;;;;8.10;4.00;;;;;;;21.24;38.21;99019.48;430591;1270;1521098;-63
2022/09/08 15:54:41;;;;;;;4.10;3.30;;;;;;;21.05;38.63;99014.40;432055;1270;141030;-62
2022/09/08 16:04:53;;;;;;;10.20;3.60;;;;;;;20.83;39.05;99010.70;431225;1271;140934;-62
2022/09/08 16:15:04;;;;;;;4.90;3.50;;;;;;;20.62;39.50;98992.28;432236;1270;141678;-62
2022/09/08 16:25:13;;;;;;;7.40;4.20;;;;;;;20.37;39.94;98980.92;431098;1270;141503;-62
2022/09/08 16:35:34;;;;;;;7.10;3.80;;;;;;;20.09;40.25;98967.70;431092;1270;141528;-62
2022/09/08 16:46:01;;;;;;;5.50;4.40;;;;;;;19.83;40.70;98961.55;433364;1271;142559;-62
2022/09/08 16:56:16;;;;;;;;;;;;;;;19.64;40.99;98965.30;446834;1269;142774;-61
2022/09/08 17:06:31;;;;;;;10.30;5.20;;;;;;;19.51;41.05;98967.60;447282;1272;127306;-61
2022/09/08 17:17:00;;;;;;;4.80;4.10;;;;;;;19.43;41.18;98960.88;447026;1273;142332;-62
2022/09/08 17:27:34;;;;;;;8.10;5.10;;;;;;;19.35;41.50;98987.57;447642;1269;142630;-62
2022/09/08 17:37:54;;;;;;;8.50;4.30;;;;;;;19.28;41.52;98973.50;447739;1270;142500;-62
2022/09/08 17:48:16;;;;;;;7.80;3.90;;;;;;;19.18;41.57;98965.00;441330;1270;140767;-61
2022/09/08 17:58:33;;;;;;;8.80;4.00;;;;;;;19.12;41.77;98976.36;447409;1271;142061;-62
2022/09/08 18:08:41;;;;;;;10.40;5.50;;;;;;;19.08;41.83;99014.02;446726;1271;142129;-61
2022/09/08 18:18:50;;;;;;;8.10;3.60;;;;;;;18.91;43.10;99063.64;447474;1270;142668;-63
2022/09/08 18:29:15;;;;;;;6.90;4.00;;;;;;;18.43;46.00;99089.25;446880;1270;185381;-62
2022/09/08 18:39:25;;;;;;;7.60;5.50;;;;;;;17.58;49.67;99106.58;445619;1270;142129;-62
2022/09/08 18:50:04;;;;;;;9.10;6.90;;;;;;;16.97;53.43;99130.84;440812;1270;141638;-61
2022/09/08 19:00:20;;;;;;;10.10;6.40;;;;;;;16.49;56.11;99122.35;441551;1271;141427;-62
2022/09/08 19:10:31;;;;;;;6.10;5.50;;;;;;;15.97;58.61;99138.75;431307;1271;141994;-60
2022/09/08 19:20:48;;;;;;;7.70;6.10;;;;;;;15.34;61.54;99138.29;432313;1271;141994;-62
2022/09/08 19:31:02;;;;;;;9.60;6.40;;;;;;;14.49;64.61;99105.95;431463;1270;146813;-61
2022/09/08 19:41:23;;;;;;;7.50;6.60;;;;;;;13.93;68.41;99074.33;429938;1271;142814;-61
2022/09/08 19:51:35;;;;;;;12.30;7.20;;;;;;;13.65;70.10;99045.38;431483;1271;143773;-61
2022/09/08 20:01:50;;;;;;;10.60;7.20;;;;;;;13.49;70.89;99027.11;432927;1271;142535;-61
2022/09/08 20:12:14;;;;;;;8.20;6.80;;;;;;;13.33;72.09;99016.95;431714;1271;143396;-59
2022/09/08 20:22:48;;;;;;;9.70;6.90;;;;;;;13.21;72.77;99036.40;432322;1270;142331;-60
2022/09/08 20:33:17;;;;;;;9.90;5.60;;;;;;;13.09;72.75;99064.14;431165;1270;143096;-62
2022/09/08 20:43:40;;;;;;;8.00;5.80;;;;;;;12.96;73.04;99062.73;431077;1270;145557;-60
2022/09/08 20:54:04;;;;;;;7.50;5.60;;;;;;;12.83;73.21;99072.20;432044;1270;146467;-62
2022/09/08 21:04:22;;;;;;;9.30;6.50;;;;;;;12.77;73.70;99082.70;430987;1270;148039;-62
2022/09/08 21:14:38;;;;;;;6.90;5.90;;;;;;;12.76;73.90;99097.50;431146;1271;143528;-61
2022/09/08 21:24:50;;;;;;;6.30;5.60;;;;;;;12.77;74.16;99091.34;431609;1270;141398;-64
2022/09/08 21:35:03;;;;;;;7.70;6.60;;;;;;;12.76;74.27;99090.15;430488;1270;183559;-62
2022/09/08 21:45:18;;;;;;;8.80;6.50;;;;;;;12.74;74.62;99082.08;431578;1270;141872;-62
2022/09/08 21:55:34;;;;;;;10.40;5.60;;;;;;;12.71;74.79;99083.02;431180;1270;142226;-63
2022/09/08 22:05:48;;;;;;;7.90;6.10;;;;;;;12.69;74.80;99084.40;431020;1270;143761;-62
2022/09/08 22:16:03;;;;;;;10.80;6.00;;;;;;;12.64;75.03;99088.70;433195;1270;141998;-62
2022/09/08 22:26:13;;;;;;;7.60;6.10;;;;;;;12.59;75.20;99086.75;430758;1270;143130;-61
2022/09/08 22:36:27;;;;;;;7.80;6.10;;;;;;;12.54;75.42;99087.34;432492;1270;142678;-59
2022/09/08 22:46:39;;;;;;;9.30;6.40;;;;;;;12.49;75.43;99074.91;434159;1270;141887;-58
2022/09/08 22:56:51;;;;;;;7.80;7.00;;;;;;;12.44;75.51;99066.75;431044;1270;143730;-60
2022/09/08 23:07:16;;;;;;;7.90;7.10;;;;;;;12.37;75.78;99064.99;431621;1270;142240;-59
2022/09/08 23:17:37;;;;;;;9.10;6.70;;;;;;;12.30;75.76;99057.27;432080;1271;142835;-57
2022/09/08 23:27:55;;;;;;;11.40;7.00;;;;;;;12.27;75.78;99066.48;433955;1270;141536;-59
2022/09/08 23:38:17;;;;;;;9.00;6.70;;;;;;;12.18;75.85;99070.30;431558;1270;142937;-60
2022/09/08 23:48:24;;;;;;;8.50;7.20;;;;;;;12.16;76.24;99074.91;431000;1270;142809;-61
2022/09/08 23:58:31;;;;;;;9.20;6.90;;;;;;;12.10;76.55;99076.95;431199;1269;141655;-61
